sensor_id;sensor_type;location;lat;lon;timestamp;P1;durP1;ratioP1;P2;durP2;ratioP2
5674;SDS011;2860;54.284;10.158;2023-02-18T00:01:02;23.20;;;4.38;;
5674;SDS011;2860;54.284;10.158;2023-02-18T00:03:32;25.42;;;4.13;;
5674;SDS011;2860;54.284;10.158;2023-02-18T00:05:57;28.50;;;5.55;;
5674;SDS011;2860;54.284;10.158;2023-02-18T00:08:23;33.25;;;3.92;;
5674;SDS011;2860;54.284;10.158;2023-02-18T00:10:49;22.05;;;4.38;;
5674;SDS011;2860;54.284;10.158;2023-02-18T00:13:15;22.02;;;4.03;;
5674;SDS011;2860;54.284;10.158;2023-02-18T00:15:40;29.42;;;4.28;;
5674;SDS011;2860;54.284;10.158;2023-02-18T00:18:06;23.35;;;4.82;;
5674;SDS011;2860;54.284;10.158;2023-02-18T00:20:31;19.35;;;3.53;;
5674;SDS011;2860;54.284;10.158;2023-02-18T00:22:59;9.00;;;3.17;;
5674;SDS011;2860;54.284;10.158;2023-02-18T00:25:25;29.45;;;4.57;;
5674;SDS011;2860;54.284;10.158;2023-02-18T00:27:50;18.98;;;3.63;;
5674;SDS011;2860;54.284;10.158;2023-02-18T00:30:16;20.20;;;3.88;;
5674;SDS011;2860;54.284;10.158;2023-02-18T00:32:41;17.48;;;2.95;;
5674;SDS011;2860;54.284;10.158;2023-02-18T00:35:07;28.10;;;4.00;;
5674;SDS011;2860;54.284;10.158;2023-02-18T00:37:33;17.10;;;2.72;;
5674;SDS011;2860;54.284;10.158;2023-02-18T00:39:58;25.38;;;5.20;;
5674;SDS011;2860;54.284;10.158;2023-02-18T00:42:24;32.72;;;4.03;;
5674;SDS011;2860;54.284;10.158;2023-02-18T00:44:49;18.95;;;3.78;;
5674;SDS011;2860;54.284;10.158;2023-02-18T00:47:15;16.23;;;2.47;;
5674;SDS011;2860;54.284;10.158;2023-02-18T00:49:40;26.45;;;5.15;;
5674;SDS011;2860;54.284;10.158;2023-02-18T00:52:06;32.15;;;4.78;;
5674;SDS011;2860;54.284;10.158;2023-02-18T00:54:31;18.25;;;3.70;;
5674;SDS011;2860;54.284;10.158;2023-02-18T00:56:57;20.75;;;3.75;;
5674;SDS011;2860;54.284;10.158;2023-02-18T00:59:23;33.03;;;4.57;;
5674;SDS011;2860;54.284;10.158;2023-02-18T01:01:48;30.70;;;5.43;;
5674;SDS011;2860;54.284;10.158;2023-02-18T01:04:14;20.77;;;3.42;;
5674;SDS011;2860;54.284;10.158;2023-02-18T01:06:39;27.38;;;4.65;;
5674;SDS011;2860;54.284;10.158;2023-02-18T01:09:05;20.98;;;3.90;;
5674;SDS011;2860;54.284;10.158;2023-02-18T01:11:31;29.70;;;3.78;;
5674;SDS011;2860;54.284;10.158;2023-02-18T01:13:56;21.58;;;3.30;;
5674;SDS011;2860;54.284;10.158;2023-02-18T01:16:22;35.88;;;6.57;;
5674;SDS011;2860;54.284;10.158;2023-02-18T01:18:48;22.30;;;3.80;;
5674;SDS011;2860;54.284;10.158;2023-02-18T01:21:14;24.92;;;3.78;;
5674;SDS011;2860;54.284;10.158;2023-02-18T01:23:40;28.38;;;3.20;;
5674;SDS011;2860;54.284;10.158;2023-02-18T01:26:06;19.92;;;4.53;;
5674;SDS011;2860;54.284;10.158;2023-02-18T01:28:32;22.02;;;3.72;;
5674;SDS011;2860;54.284;10.158;2023-02-18T01:31:02;21.27;;;3.95;;
5674;SDS011;2860;54.284;10.158;2023-02-18T01:33:33;24.67;;;3.42;;
5674;SDS011;2860;54.284;10.158;2023-02-18T01:35:59;26.75;;;4.38;;
5674;SDS011;2860;54.284;10.158;2023-02-18T01:38:25;14.63;;;3.20;;
5674;SDS011;2860;54.284;10.158;2023-02-18T01:40:50;23.00;;;3.83;;
5674;SDS011;2860;54.284;10.158;2023-02-18T01:43:17;15.23;;;2.58;;
5674;SDS011;2860;54.284;10.158;2023-02-18T01:45:49;18.15;;;3.45;;
5674;SDS011;2860;54.284;10.158;2023-02-18T01:48:20;12.93;;;2.78;;
5674;SDS011;2860;54.284;10.158;2023-02-18T01:51:01;28.55;;;4.05;;
5674;SDS011;2860;54.284;10.158;2023-02-18T01:53:53;20.35;;;3.92;;
5674;SDS011;2860;54.284;10.158;2023-02-18T01:56:25;25.77;;;4.00;;
5674;SDS011;2860;54.284;10.158;2023-02-18T01:58:51;22.20;;;3.63;;
5674;SDS011;2860;54.284;10.158;2023-02-18T02:01:20;17.35;;;4.45;;
5674;SDS011;2860;54.284;10.158;2023-02-18T02:03:47;29.40;;;3.20;;
5674;SDS011;2860;54.284;10.158;2023-02-18T02:06:14;7.60;;;2.35;;
5674;SDS011;2860;54.284;10.158;2023-02-18T02:08:41;17.42;;;3.28;;
5674;SDS011;2860;54.284;10.158;2023-02-18T02:11:16;13.27;;;2.35;;
5674;SDS011;2860;54.284;10.158;2023-02-18T02:16:29;15.15;;;3.55;;
5674;SDS011;2860;54.284;10.158;2023-02-18T02:30:00;17.65;;;3.97;;
5674;SDS011;2860;54.284;10.158;2023-02-18T02:36:02;23.98;;;3.92;;
5674;SDS011;2860;54.284;10.158;2023-02-18T02:44:18;16.20;;;2.47;;
5674;SDS011;2860;54.284;10.158;2023-02-18T02:47:07;19.58;;;3.38;;
5674;SDS011;2860;54.284;10.158;2023-02-18T02:49:57;22.15;;;3.75;;
5674;SDS011;2860;54.284;10.158;2023-02-18T02:52:31;11.82;;;3.17;;
5674;SDS011;2860;54.284;10.158;2023-02-18T02:54:58;11.52;;;2.65;;
5674;SDS011;2860;54.284;10.158;2023-02-18T02:59:51;25.02;;;4.35;;
5674;SDS011;2860;54.284;10.158;2023-02-18T03:10:11;15.48;;;2.97;;
5674;SDS011;2860;54.284;10.158;2023-02-18T03:13:10;17.27;;;3.60;;
5674;SDS011;2860;54.284;10.158;2023-02-18T03:15:46;20.92;;;3.85;;
5674;SDS011;2860;54.284;10.158;2023-02-18T03:18:22;16.95;;;2.55;;
5674;SDS011;2860;54.284;10.158;2023-02-18T03:20:54;22.75;;;3.63;;
5674;SDS011;2860;54.284;10.158;2023-02-18T03:23:26;15.07;;;3.22;;
5674;SDS011;2860;54.284;10.158;2023-02-18T03:25:56;36.65;;;3.67;;
5674;SDS011;2860;54.284;10.158;2023-02-18T03:28:23;11.65;;;4.43;;
5674;SDS011;2860;54.284;10.158;2023-02-18T03:30:54;23.98;;;3.75;;
5674;SDS011;2860;54.284;10.158;2023-02-18T03:33:25;19.30;;;3.45;;
5674;SDS011;2860;54.284;10.158;2023-02-18T03:35:57;12.40;;;3.75;;
5674;SDS011;2860;54.284;10.158;2023-02-18T03:38:25;34.78;;;3.95;;
5674;SDS011;2860;54.284;10.158;2023-02-18T03:40:52;20.67;;;3.65;;
5674;SDS011;2860;54.284;10.158;2023-02-18T03:43:17;19.92;;;3.58;;
5674;SDS011;2860;54.284;10.158;2023-02-18T03:45:43;28.52;;;4.63;;
5674;SDS011;2860;54.284;10.158;2023-02-18T03:48:08;20.02;;;2.95;;
5674;SDS011;2860;54.284;10.158;2023-02-18T03:50:34;21.40;;;3.20;;
5674;SDS011;2860;54.284;10.158;2023-02-18T03:52:59;34.33;;;4.03;;
5674;SDS011;2860;54.284;10.158;2023-02-18T03:55:25;25.83;;;3.58;;
5674;SDS011;2860;54.284;10.158;2023-02-18T03:57:50;26.27;;;3.35;;
5674;SDS011;2860;54.284;10.158;2023-02-18T04:00:16;20.40;;;4.90;;
5674;SDS011;2860;54.284;10.158;2023-02-18T04:02:42;29.63;;;4.07;;
5674;SDS011;2860;54.284;10.158;2023-02-18T04:05:08;18.73;;;4.32;;
5674;SDS011;2860;54.284;10.158;2023-02-18T04:07:34;27.73;;;3.40;;
5674;SDS011;2860;54.284;10.158;2023-02-18T04:09:59;22.75;;;2.85;;
5674;SDS011;2860;54.284;10.158;2023-02-18T04:12:25;24.00;;;3.53;;
5674;SDS011;2860;54.284;10.158;2023-02-18T04:14:50;19.35;;;3.47;;
5674;SDS011;2860;54.284;10.158;2023-02-18T04:17:16;20.95;;;3.50;;
5674;SDS011;2860;54.284;10.158;2023-02-18T04:19:41;23.80;;;2.92;;
5674;SDS011;2860;54.284;10.158;2023-02-18T04:22:07;28.55;;;3.13;;
5674;SDS011;2860;54.284;10.158;2023-02-18T04:24:33;17.65;;;3.92;;
5674;SDS011;2860;54.284;10.158;2023-02-18T04:26:58;19.92;;;2.72;;
5674;SDS011;2860;54.284;10.158;2023-02-18T04:29:24;20.80;;;3.42;;
5674;SDS011;2860;54.284;10.158;2023-02-18T04:31:49;19.27;;;3.28;;
5674;SDS011;2860;54.284;10.158;2023-02-18T04:34:15;20.63;;;2.65;;
5674;SDS011;2860;54.284;10.158;2023-02-18T04:36:40;20.42;;;3.15;;
5674;SDS011;2860;54.284;10.158;2023-02-18T04:39:06;9.82;;;2.35;;
5674;SDS011;2860;54.284;10.158;2023-02-18T04:41:31;30.20;;;3.70;;
5674;SDS011;2860;54.284;10.158;2023-02-18T04:43:57;23.55;;;3.10;;
5674;SDS011;2860;54.284;10.158;2023-02-18T04:46:23;15.95;;;3.10;;
5674;SDS011;2860;54.284;10.158;2023-02-18T04:48:49;22.58;;;4.85;;
5674;SDS011;2860;54.284;10.158;2023-02-18T04:51:14;21.65;;;2.88;;
5674;SDS011;2860;54.284;10.158;2023-02-18T04:53:40;15.27;;;3.67;;
5674;SDS011;2860;54.284;10.158;2023-02-18T04:56:05;16.67;;;3.35;;
5674;SDS011;2860;54.284;10.158;2023-02-18T04:58:31;15.05;;;2.90;;
5674;SDS011;2860;54.284;10.158;2023-02-18T05:01:00;18.15;;;2.85;;
5674;SDS011;2860;54.284;10.158;2023-02-18T05:03:27;11.75;;;2.00;;
5674;SDS011;2860;54.284;10.158;2023-02-18T05:05:53;11.50;;;2.10;;
5674;SDS011;2860;54.284;10.158;2023-02-18T05:08:19;14.27;;;1.90;;
5674;SDS011;2860;54.284;10.158;2023-02-18T05:10:44;18.35;;;2.35;;
5674;SDS011;2860;54.284;10.158;2023-02-18T05:13:10;19.33;;;3.00;;
5674;SDS011;2860;54.284;10.158;2023-02-18T05:15:35;13.57;;;1.75;;
5674;SDS011;2860;54.284;10.158;2023-02-18T05:18:01;6.32;;;2.40;;
5674;SDS011;2860;54.284;10.158;2023-02-18T05:20:27;9.70;;;1.92;;
5674;SDS011;2860;54.284;10.158;2023-02-18T05:22:53;23.30;;;2.42;;
5674;SDS011;2860;54.284;10.158;2023-02-18T05:25:18;16.25;;;2.50;;
5674;SDS011;2860;54.284;10.158;2023-02-18T05:27:44;19.63;;;2.50;;
5674;SDS011;2860;54.284;10.158;2023-02-18T05:30:09;10.90;;;2.17;;
5674;SDS011;2860;54.284;10.158;2023-02-18T05:32:35;10.73;;;1.95;;
5674;SDS011;2860;54.284;10.158;2023-02-18T05:35:00;7.68;;;1.75;;
5674;SDS011;2860;54.284;10.158;2023-02-18T05:37:26;11.07;;;1.85;;
5674;SDS011;2860;54.284;10.158;2023-02-18T05:39:51;8.77;;;1.67;;
5674;SDS011;2860;54.284;10.158;2023-02-18T05:42:17;13.40;;;2.85;;
5674;SDS011;2860;54.284;10.158;2023-02-18T05:44:42;6.32;;;1.20;;
5674;SDS011;2860;54.284;10.158;2023-02-18T05:47:09;3.72;;;0.98;;
5674;SDS011;2860;54.284;10.158;2023-02-18T05:49:38;19.67;;;2.28;;
5674;SDS011;2860;54.284;10.158;2023-02-18T05:52:05;6.63;;;0.75;;
5674;SDS011;2860;54.284;10.158;2023-02-18T05:54:31;6.18;;;2.08;;
5674;SDS011;2860;54.284;10.158;2023-02-18T05:56:57;6.30;;;1.50;;
5674;SDS011;2860;54.284;10.158;2023-02-18T05:59:23;6.78;;;1.40;;
5674;SDS011;2860;54.284;10.158;2023-02-18T06:01:50;3.92;;;1.50;;
5674;SDS011;2860;54.284;10.158;2023-02-18T06:04:15;9.55;;;1.02;;
5674;SDS011;2860;54.284;10.158;2023-02-18T06:06:41;9.85;;;1.55;;
5674;SDS011;2860;54.284;10.158;2023-02-18T06:09:08;10.55;;;1.70;;
5674;SDS011;2860;54.284;10.158;2023-02-18T06:11:34;7.55;;;1.50;;
5674;SDS011;2860;54.284;10.158;2023-02-18T06:13:59;5.60;;;1.13;;
5674;SDS011;2860;54.284;10.158;2023-02-18T06:16:25;8.55;;;2.00;;
5674;SDS011;2860;54.284;10.158;2023-02-18T06:18:51;11.45;;;2.22;;
5674;SDS011;2860;54.284;10.158;2023-02-18T06:21:16;3.88;;;1.10;;
5674;SDS011;2860;54.284;10.158;2023-02-18T06:23:42;13.43;;;2.40;;
5674;SDS011;2860;54.284;10.158;2023-02-18T06:26:08;14.55;;;1.98;;
5674;SDS011;2860;54.284;10.158;2023-02-18T06:28:35;7.88;;;1.50;;
5674;SDS011;2860;54.284;10.158;2023-02-18T06:31:00;5.55;;;1.45;;
5674;SDS011;2860;54.284;10.158;2023-02-18T06:33:26;8.57;;;1.75;;
5674;SDS011;2860;54.284;10.158;2023-02-18T06:35:55;7.43;;;1.65;;
5674;SDS011;2860;54.284;10.158;2023-02-18T06:38:22;7.60;;;1.65;;
5674;SDS011;2860;54.284;10.158;2023-02-18T06:40:47;5.55;;;1.83;;
5674;SDS011;2860;54.284;10.158;2023-02-18T06:43:13;9.07;;;1.45;;
5674;SDS011;2860;54.284;10.158;2023-02-18T06:45:38;5.50;;;1.52;;
5674;SDS011;2860;54.284;10.158;2023-02-18T06:48:04;6.70;;;1.40;;
5674;SDS011;2860;54.284;10.158;2023-02-18T06:50:29;4.65;;;1.50;;
5674;SDS011;2860;54.284;10.158;2023-02-18T06:52:55;0.80;;;0.75;;
5674;SDS011;2860;54.284;10.158;2023-02-18T06:55:21;7.65;;;2.65;;
5674;SDS011;2860;54.284;10.158;2023-02-18T06:57:46;8.20;;;1.42;;
5674;SDS011;2860;54.284;10.158;2023-02-18T07:00:12;6.53;;;1.48;;
5674;SDS011;2860;54.284;10.158;2023-02-18T07:02:38;6.45;;;1.27;;
5674;SDS011;2860;54.284;10.158;2023-02-18T07:05:04;3.17;;;1.58;;
5674;SDS011;2860;54.284;10.158;2023-02-18T07:07:29;2.20;;;0.90;;
5674;SDS011;2860;54.284;10.158;2023-02-18T07:09:55;2.92;;;1.23;;
5674;SDS011;2860;54.284;10.158;2023-02-18T07:12:20;4.18;;;1.02;;
5674;SDS011;2860;54.284;10.158;2023-02-18T07:14:46;7.05;;;1.60;;
5674;SDS011;2860;54.284;10.158;2023-02-18T07:17:11;2.92;;;0.90;;
5674;SDS011;2860;54.284;10.158;2023-02-18T07:19:37;3.35;;;0.82;;
5674;SDS011;2860;54.284;10.158;2023-02-18T07:22:03;3.30;;;1.15;;
5674;SDS011;2860;54.284;10.158;2023-02-18T07:24:29;5.68;;;0.90;;
5674;SDS011;2860;54.284;10.158;2023-02-18T07:26:54;1.65;;;1.15;;
5674;SDS011;2860;54.284;10.158;2023-02-18T07:29:20;1.88;;;1.08;;
5674;SDS011;2860;54.284;10.158;2023-02-18T07:31:45;1.15;;;1.10;;
5674;SDS011;2860;54.284;10.158;2023-02-18T07:34:11;1.70;;;1.05;;
5674;SDS011;2860;54.284;10.158;2023-02-18T07:36:36;0.70;;;0.70;;
5674;SDS011;2860;54.284;10.158;2023-02-18T07:39:02;0.95;;;0.95;;
5674;SDS011;2860;54.284;10.158;2023-02-18T07:41:28;2.03;;;0.82;;
5674;SDS011;2860;54.284;10.158;2023-02-18T07:43:53;2.05;;;0.70;;
5674;SDS011;2860;54.284;10.158;2023-02-18T07:46:19;0.80;;;0.70;;
5674;SDS011;2860;54.284;10.158;2023-02-18T07:48:44;2.80;;;0.90;;
5674;SDS011;2860;54.284;10.158;2023-02-18T07:51:10;2.55;;;1.00;;
5674;SDS011;2860;54.284;10.158;2023-02-18T07:53:36;0.80;;;0.80;;
5674;SDS011;2860;54.284;10.158;2023-02-18T07:56:03;5.47;;;0.90;;
5674;SDS011;2860;54.284;10.158;2023-02-18T07:58:31;2.95;;;0.85;;
5674;SDS011;2860;54.284;10.158;2023-02-18T08:00:58;1.35;;;1.10;;
5674;SDS011;2860;54.284;10.158;2023-02-18T08:03:28;2.50;;;1.00;;
5674;SDS011;2860;54.284;10.158;2023-02-18T08:05:55;3.20;;;1.20;;
5674;SDS011;2860;54.284;10.158;2023-02-18T08:08:22;2.67;;;0.95;;
5674;SDS011;2860;54.284;10.158;2023-02-18T08:10:49;1.67;;;1.17;;
5674;SDS011;2860;54.284;10.158;2023-02-18T08:13:15;1.77;;;0.93;;
5674;SDS011;2860;54.284;10.158;2023-02-18T08:15:41;3.50;;;1.20;;
5674;SDS011;2860;54.284;10.158;2023-02-18T08:18:07;3.85;;;1.35;;
5674;SDS011;2860;54.284;10.158;2023-02-18T08:20:38;2.53;;;0.90;;
5674;SDS011;2860;54.284;10.158;2023-02-18T08:23:04;5.40;;;1.55;;
5674;SDS011;2860;54.284;10.158;2023-02-18T08:25:30;5.35;;;1.10;;
5674;SDS011;2860;54.284;10.158;2023-02-18T08:27:56;1.05;;;1.05;;
5674;SDS011;2860;54.284;10.158;2023-02-18T08:30:22;2.33;;;1.13;;
5674;SDS011;2860;54.284;10.158;2023-02-18T08:32:47;1.05;;;1.02;;
5674;SDS011;2860;54.284;10.158;2023-02-18T08:35:13;2.72;;;1.10;;
5674;SDS011;2860;54.284;10.158;2023-02-18T08:37:38;6.28;;;1.00;;
5674;SDS011;2860;54.284;10.158;2023-02-18T08:40:04;1.55;;;1.23;;
5674;SDS011;2860;54.284;10.158;2023-02-18T08:42:31;4.85;;;1.30;;
5674;SDS011;2860;54.284;10.158;2023-02-18T08:44:56;2.97;;;0.90;;
5674;SDS011;2860;54.284;10.158;2023-02-18T08:47:22;1.95;;;1.10;;
5674;SDS011;2860;54.284;10.158;2023-02-18T08:49:47;1.50;;;1.20;;
5674;SDS011;2860;54.284;10.158;2023-02-18T08:52:13;0.80;;;0.80;;
5674;SDS011;2860;54.284;10.158;2023-02-18T08:54:38;1.52;;;1.45;;
5674;SDS011;2860;54.284;10.158;2023-02-18T08:57:04;5.32;;;1.30;;
5674;SDS011;2860;54.284;10.158;2023-02-18T08:59:29;3.67;;;1.15;;
5674;SDS011;2860;54.284;10.158;2023-02-18T09:01:55;4.43;;;0.82;;
5674;SDS011;2860;54.284;10.158;2023-02-18T09:04:21;1.23;;;1.10;;
5674;SDS011;2860;54.284;10.158;2023-02-18T09:06:47;1.30;;;1.27;;
5674;SDS011;2860;54.284;10.158;2023-02-18T09:09:14;13.68;;;1.90;;
5674;SDS011;2860;54.284;10.158;2023-02-18T09:11:40;2.78;;;1.15;;
5674;SDS011;2860;54.284;10.158;2023-02-18T09:14:05;0.90;;;0.90;;
5674;SDS011;2860;54.284;10.158;2023-02-18T09:16:31;2.60;;;1.30;;
5674;SDS011;2860;54.284;10.158;2023-02-18T09:18:56;2.30;;;1.23;;
5674;SDS011;2860;54.284;10.158;2023-02-18T09:21:22;2.78;;;1.35;;
5674;SDS011;2860;54.284;10.158;2023-02-18T09:23:50;1.23;;;1.08;;
5674;SDS011;2860;54.284;10.158;2023-02-18T09:26:17;1.70;;;1.02;;
5674;SDS011;2860;54.284;10.158;2023-02-18T09:28:46;5.68;;;1.10;;
5674;SDS011;2860;54.284;10.158;2023-02-18T09:31:14;1.30;;;1.20;;
5674;SDS011;2860;54.284;10.158;2023-02-18T09:33:42;5.03;;;1.10;;
5674;SDS011;2860;54.284;10.158;2023-02-18T09:36:10;1.55;;;1.15;;
5674;SDS011;2860;54.284;10.158;2023-02-18T09:38:36;4.55;;;1.63;;
5674;SDS011;2860;54.284;10.158;2023-02-18T09:41:02;1.48;;;1.38;;
5674;SDS011;2860;54.284;10.158;2023-02-18T09:43:34;4.93;;;1.52;;
5674;SDS011;2860;54.284;10.158;2023-02-18T09:46:06;2.05;;;1.30;;
5674;SDS011;2860;54.284;10.158;2023-02-18T09:48:41;1.50;;;1.40;;
5674;SDS011;2860;54.284;10.158;2023-02-18T09:51:12;1.15;;;1.15;;
5674;SDS011;2860;54.284;10.158;2023-02-18T09:53:39;1.55;;;1.33;;
5674;SDS011;2860;54.284;10.158;2023-02-18T09:56:08;1.20;;;1.10;;
5674;SDS011;2860;54.284;10.158;2023-02-18T09:58:38;1.48;;;1.10;;
5674;SDS011;2860;54.284;10.158;2023-02-18T10:01:16;1.13;;;1.02;;
5674;SDS011;2860;54.284;10.158;2023-02-18T10:03:49;1.23;;;1.23;;
5674;SDS011;2860;54.284;10.158;2023-02-18T10:06:21;1.40;;;1.40;;
5674;SDS011;2860;54.284;10.158;2023-02-18T10:08:50;1.40;;;1.40;;
5674;SDS011;2860;54.284;10.158;2023-02-18T10:11:27;1.27;;;1.20;;
5674;SDS011;2860;54.284;10.158;2023-02-18T10:13:58;2.25;;;1.50;;
5674;SDS011;2860;54.284;10.158;2023-02-18T10:16:26;5.00;;;2.42;;
5674;SDS011;2860;54.284;10.158;2023-02-18T10:18:52;1.15;;;1.05;;
5674;SDS011;2860;54.284;10.158;2023-02-18T10:21:21;1.70;;;1.70;;
5674;SDS011;2860;54.284;10.158;2023-02-18T10:24:01;1.33;;;0.88;;
5674;SDS011;2860;54.284;10.158;2023-02-18T10:26:30;1.73;;;0.98;;
5674;SDS011;2860;54.284;10.158;2023-02-18T10:28:59;0.82;;;0.82;;
5674;SDS011;2860;54.284;10.158;2023-02-18T10:31:30;1.40;;;1.23;;
5674;SDS011;2860;54.284;10.158;2023-02-18T10:39:20;0.60;;;0.60;;
5674;SDS011;2860;54.284;10.158;2023-02-18T10:41:53;0.70;;;0.70;;
5674;SDS011;2860;54.284;10.158;2023-02-18T10:47:05;0.75;;;0.75;;
5674;SDS011;2860;54.284;10.158;2023-02-18T10:52:33;1.00;;;0.70;;
5674;SDS011;2860;54.284;10.158;2023-02-18T10:55:08;1.92;;;1.60;;
5674;SDS011;2860;54.284;10.158;2023-02-18T10:57:49;3.10;;;0.90;;
5674;SDS011;2860;54.284;10.158;2023-02-18T11:03:13;1.95;;;0.63;;
5674;SDS011;2860;54.284;10.158;2023-02-18T11:05:41;0.70;;;0.70;;
5674;SDS011;2860;54.284;10.158;2023-02-18T11:08:09;1.38;;;0.75;;
5674;SDS011;2860;54.284;10.158;2023-02-18T11:10:42;1.00;;;0.85;;
5674;SDS011;2860;54.284;10.158;2023-02-18T11:13:11;1.13;;;0.93;;
5674;SDS011;2860;54.284;10.158;2023-02-18T11:15:38;0.98;;;0.70;;
5674;SDS011;2860;54.284;10.158;2023-02-18T11:20:57;2.92;;;1.02;;
5674;SDS011;2860;54.284;10.158;2023-02-18T11:23:24;2.13;;;2.03;;
5674;SDS011;2860;54.284;10.158;2023-02-18T11:26:06;1.55;;;1.55;;
5674;SDS011;2860;54.284;10.158;2023-02-18T11:28:50;0.90;;;0.90;;
5674;SDS011;2860;54.284;10.158;2023-02-18T11:31:23;1.30;;;1.30;;
5674;SDS011;2860;54.284;10.158;2023-02-18T11:33:51;1.30;;;1.30;;
5674;SDS011;2860;54.284;10.158;2023-02-18T11:36:24;1.38;;;1.38;;
5674;SDS011;2860;54.284;10.158;2023-02-18T11:39:05;1.38;;;1.38;;
5674;SDS011;2860;54.284;10.158;2023-02-18T11:41:43;1.83;;;1.30;;
5674;SDS011;2860;54.284;10.158;2023-02-18T11:44:22;1.10;;;1.10;;
5674;SDS011;2860;54.284;10.158;2023-02-18T11:47:03;1.48;;;1.48;;
5674;SDS011;2860;54.284;10.158;2023-02-18T11:50:49;4.25;;;3.95;;
5674;SDS011;2860;54.284;10.158;2023-02-18T11:52:47;7.55;;;5.85;;
5674;SDS011;2860;54.284;10.158;2023-02-18T11:58:05;2.40;;;2.30;;
5674;SDS011;2860;54.284;10.158;2023-02-18T12:02:59;17.90;;;10.60;;
5674;SDS011;2860;54.284;10.158;2023-02-18T12:05:31;9.13;;;5.10;;
5674;SDS011;2860;54.284;10.158;2023-02-18T12:08:10;1.35;;;1.35;;
5674;SDS011;2860;54.284;10.158;2023-02-18T12:10:48;2.80;;;2.63;;
5674;SDS011;2860;54.284;10.158;2023-02-18T12:13:59;2.92;;;2.72;;
5674;SDS011;2860;54.284;10.158;2023-02-18T12:18:56;2.83;;;2.65;;
5674;SDS011;2860;54.284;10.158;2023-02-18T12:21:52;1.05;;;1.05;;
5674;SDS011;2860;54.284;10.158;2023-02-18T12:27:12;3.75;;;1.20;;
5674;SDS011;2860;54.284;10.158;2023-02-18T12:32:38;2.60;;;1.13;;
5674;SDS011;2860;54.284;10.158;2023-02-18T12:44:05;2.10;;;1.17;;
5674;SDS011;2860;54.284;10.158;2023-02-18T12:47:00;1.00;;;1.00;;
5674;SDS011;2860;54.284;10.158;2023-02-18T12:58:36;1.23;;;1.13;;
5674;SDS011;2860;54.284;10.158;2023-02-18T13:01:28;1.00;;;1.00;;
5674;SDS011;2860;54.284;10.158;2023-02-18T13:04:11;1.58;;;1.48;;
5674;SDS011;2860;54.284;10.158;2023-02-18T13:07:45;1.17;;;1.02;;
5674;SDS011;2860;54.284;10.158;2023-02-18T13:18:03;1.52;;;1.48;;
5674;SDS011;2860;54.284;10.158;2023-02-18T13:20:39;1.60;;;1.00;;
5674;SDS011;2860;54.284;10.158;2023-02-18T13:23:19;1.15;;;1.02;;
5674;SDS011;2860;54.284;10.158;2023-02-18T13:25:48;1.30;;;1.20;;
5674;SDS011;2860;54.284;10.158;2023-02-18T13:28:20;2.38;;;1.23;;
5674;SDS011;2860;54.284;10.158;2023-02-18T13:31:01;1.08;;;1.08;;
5674;SDS011;2860;54.284;10.158;2023-02-18T13:36:32;1.35;;;1.30;;
5674;SDS011;2860;54.284;10.158;2023-02-18T13:39:05;4.15;;;1.10;;
5674;SDS011;2860;54.284;10.158;2023-02-18T13:41:37;1.25;;;1.25;;
5674;SDS011;2860;54.284;10.158;2023-02-18T13:44:08;1.73;;;1.00;;
5674;SDS011;2860;54.284;10.158;2023-02-18T13:46:51;1.15;;;0.98;;
5674;SDS011;2860;54.284;10.158;2023-02-18T13:49:22;0.88;;;0.88;;
5674;SDS011;2860;54.284;10.158;2023-02-18T13:51:54;1.02;;;1.02;;
5674;SDS011;2860;54.284;10.158;2023-02-18T13:54:24;0.70;;;0.70;;
5674;SDS011;2860;54.284;10.158;2023-02-18T13:56:59;1.48;;;0.90;;
5674;SDS011;2860;54.284;10.158;2023-02-18T14:07:25;1.65;;;1.65;;
5674;SDS011;2860;54.284;10.158;2023-02-18T14:10:04;1.15;;;1.15;;
5674;SDS011;2860;54.284;10.158;2023-02-18T14:17:48;1.65;;;1.23;;
5674;SDS011;2860;54.284;10.158;2023-02-18T14:24:03;1.20;;;1.20;;
5674;SDS011;2860;54.284;10.158;2023-02-18T14:26:22;2.70;;;0.95;;
5674;SDS011;2860;54.284;10.158;2023-02-18T14:29:00;5.78;;;1.02;;
5674;SDS011;2860;54.284;10.158;2023-02-18T14:31:44;1.08;;;1.08;;
5674;SDS011;2860;54.284;10.158;2023-02-18T14:36:51;1.35;;;1.35;;
5674;SDS011;2860;54.284;10.158;2023-02-18T14:39:38;1.20;;;1.20;;
5674;SDS011;2860;54.284;10.158;2023-02-18T14:50:40;0.95;;;0.95;;
5674;SDS011;2860;54.284;10.158;2023-02-18T14:53:10;1.65;;;0.95;;
5674;SDS011;2860;54.284;10.158;2023-02-18T14:55:44;0.63;;;0.63;;
5674;SDS011;2860;54.284;10.158;2023-02-18T15:00:52;0.93;;;0.93;;
5674;SDS011;2860;54.284;10.158;2023-02-18T15:03:17;2.85;;;1.10;;
5674;SDS011;2860;54.284;10.158;2023-02-18T15:05:46;0.90;;;0.90;;
5674;SDS011;2860;54.284;10.158;2023-02-18T15:08:19;0.90;;;0.90;;
5674;SDS011;2860;54.284;10.158;2023-02-18T15:10:50;1.10;;;1.10;;
5674;SDS011;2860;54.284;10.158;2023-02-18T15:15:53;1.48;;;0.95;;
5674;SDS011;2860;54.284;10.158;2023-02-18T15:21:01;1.75;;;1.38;;
5674;SDS011;2860;54.284;10.158;2023-02-18T15:23:28;1.40;;;1.40;;
5674;SDS011;2860;54.284;10.158;2023-02-18T15:25:55;1.60;;;1.60;;
5674;SDS011;2860;54.284;10.158;2023-02-18T15:28:23;1.60;;;1.60;;
5674;SDS011;2860;54.284;10.158;2023-02-18T15:30:54;2.10;;;1.35;;
5674;SDS011;2860;54.284;10.158;2023-02-18T15:33:21;1.85;;;1.85;;
5674;SDS011;2860;54.284;10.158;2023-02-18T15:35:47;2.50;;;1.85;;
5674;SDS011;2860;54.284;10.158;2023-02-18T15:38:13;1.45;;;1.45;;
5674;SDS011;2860;54.284;10.158;2023-02-18T15:40:40;1.45;;;1.42;;
5674;SDS011;2860;54.284;10.158;2023-02-18T15:43:07;1.42;;;1.42;;
5674;SDS011;2860;54.284;10.158;2023-02-18T15:45:34;3.22;;;2.92;;
5674;SDS011;2860;54.284;10.158;2023-02-18T15:48:02;2.60;;;2.50;;
5674;SDS011;2860;54.284;10.158;2023-02-18T15:50:34;1.92;;;1.83;;
5674;SDS011;2860;54.284;10.158;2023-02-18T15:53:05;4.15;;;3.05;;
5674;SDS011;2860;54.284;10.158;2023-02-18T15:55:37;2.40;;;2.30;;
5674;SDS011;2860;54.284;10.158;2023-02-18T15:58:06;2.85;;;2.65;;
5674;SDS011;2860;54.284;10.158;2023-02-18T16:00:45;2.80;;;2.75;;
5674;SDS011;2860;54.284;10.158;2023-02-18T16:03:20;2.97;;;2.85;;
5674;SDS011;2860;54.284;10.158;2023-02-18T16:05:48;3.05;;;2.85;;
5674;SDS011;2860;54.284;10.158;2023-02-18T16:08:16;3.47;;;3.28;;
5674;SDS011;2860;54.284;10.158;2023-02-18T16:10:49;3.20;;;2.90;;
5674;SDS011;2860;54.284;10.158;2023-02-18T16:13:50;3.05;;;2.95;;
5674;SDS011;2860;54.284;10.158;2023-02-18T16:16:18;2.78;;;2.58;;
5674;SDS011;2860;54.284;10.158;2023-02-18T16:18:48;2.72;;;2.63;;
5674;SDS011;2860;54.284;10.158;2023-02-18T16:23:44;3.85;;;3.65;;
5674;SDS011;2860;54.284;10.158;2023-02-18T16:29:09;3.40;;;3.30;;
5674;SDS011;2860;54.284;10.158;2023-02-18T16:31:37;4.53;;;4.13;;
5674;SDS011;2860;54.284;10.158;2023-02-18T16:34:02;3.92;;;3.75;;
5674;SDS011;2860;54.284;10.158;2023-02-18T16:36:28;5.47;;;5.07;;
5674;SDS011;2860;54.284;10.158;2023-02-18T16:38:54;4.80;;;4.60;;
5674;SDS011;2860;54.284;10.158;2023-02-18T16:41:19;7.25;;;6.85;;
5674;SDS011;2860;54.284;10.158;2023-02-18T16:43:45;5.40;;;5.10;;
5674;SDS011;2860;54.284;10.158;2023-02-18T16:46:14;5.22;;;4.93;;
5674;SDS011;2860;54.284;10.158;2023-02-18T16:48:50;5.47;;;5.18;;
5674;SDS011;2860;54.284;10.158;2023-02-18T16:51:23;7.10;;;6.57;;
5674;SDS011;2860;54.284;10.158;2023-02-18T16:53:53;6.03;;;5.72;;
5674;SDS011;2860;54.284;10.158;2023-02-18T16:56:20;6.28;;;5.93;;
5674;SDS011;2860;54.284;10.158;2023-02-18T16:58:48;5.30;;;5.10;;
5674;SDS011;2860;54.284;10.158;2023-02-18T17:03:58;5.85;;;5.55;;
5674;SDS011;2860;54.284;10.158;2023-02-18T17:06:25;5.65;;;5.35;;
5674;SDS011;2860;54.284;10.158;2023-02-18T17:08:51;7.63;;;7.05;;
5674;SDS011;2860;54.284;10.158;2023-02-18T17:11:19;9.00;;;8.30;;
5674;SDS011;2860;54.284;10.158;2023-02-18T17:13:47;6.25;;;5.88;;
5674;SDS011;2860;54.284;10.158;2023-02-18T17:16:14;7.65;;;7.15;;
5674;SDS011;2860;54.284;10.158;2023-02-18T17:18:40;6.72;;;6.43;;
5674;SDS011;2860;54.284;10.158;2023-02-18T17:21:17;6.20;;;5.75;;
5674;SDS011;2860;54.284;10.158;2023-02-18T17:23:44;6.32;;;5.93;;
5674;SDS011;2860;54.284;10.158;2023-02-18T17:26:13;5.55;;;5.25;;